createdAt,value
2018-03-02T00:00:17.773Z,75.40
2018-03-02T00:02:45.238Z,57.20
2018-03-02T00:05:12.709Z,74.68
2018-03-02T00:07:40.158Z,75.35
2018-03-02T00:10:07.618Z,83.47
2018-03-02T00:12:35.103Z,86.70
2018-03-02T00:15:02.583Z,77.65
2018-03-02T00:17:30.039Z,83.80
2018-03-02T00:19:57.500Z,75.65
2018-03-02T00:22:25.082Z,73.32
2018-03-02T00:24:53.288Z,80.00
2018-03-02T00:27:20.749Z,72.35
2018-03-02T00:29:48.638Z,72.15
2018-03-02T00:32:16.102Z,80.10
2018-03-02T00:34:43.559Z,80.30
2018-03-02T00:37:11.022Z,83.55
2018-03-02T00:39:38.484Z,80.72
2018-03-02T00:42:05.924Z,77.20
2018-03-02T00:44:34.889Z,78.57
2018-03-02T00:47:02.925Z,86.72
2018-03-02T00:49:31.150Z,70.97
2018-03-02T00:51:58.618Z,79.93
2018-03-02T00:54:26.078Z,48.85
2018-03-02T00:56:53.553Z,59.28
2018-03-02T00:59:21.783Z,65.45
2018-03-02T01:01:49.237Z,77.05
2018-03-02T01:04:16.695Z,62.67
2018-03-02T01:06:44.152Z,76.55
2018-03-02T01:09:11.617Z,94.37
2018-03-02T01:11:39.078Z,84.37
2018-03-02T01:14:06.516Z,82.07
2018-03-02T01:16:33.969Z,75.07
2018-03-02T01:19:01.428Z,82.00
2018-03-02T01:21:28.877Z,73.22
2018-03-02T01:23:56.368Z,78.10
2018-03-02T01:26:23.818Z,71.20
2018-03-02T01:28:51.282Z,83.05
2018-03-02T01:31:18.736Z,83.68
2018-03-02T01:33:46.193Z,80.57
2018-03-02T01:36:13.654Z,72.18
2018-03-02T01:38:41.117Z,76.05
2018-03-02T01:41:08.591Z,69.00
2018-03-02T01:43:36.053Z,75.93
2018-03-02T01:46:03.511Z,69.20
2018-03-02T01:48:30.976Z,65.18
2018-03-02T01:50:59.192Z,67.72
2018-03-02T01:53:26.654Z,65.93
2018-03-02T01:55:54.879Z,65.32
2018-03-02T01:58:23.096Z,60.90
2018-03-02T02:00:51.333Z,71.25
2018-03-02T02:03:19.192Z,70.65
2018-03-02T02:05:46.641Z,76.97
2018-03-02T02:08:14.094Z,74.32
2018-03-02T02:10:41.566Z,75.18
2018-03-02T02:13:09.021Z,72.65
2018-03-02T02:15:37.242Z,74.70
2018-03-02T02:18:04.699Z,87.03
2018-03-02T02:20:32.149Z,77.37
2018-03-02T02:22:59.622Z,68.00
2018-03-02T02:25:27.075Z,77.28
2018-03-02T02:27:54.538Z,68.37
2018-03-02T02:30:22.006Z,68.75
2018-03-02T02:32:49.464Z,80.15
2018-03-02T02:35:16.917Z,75.95
2018-03-02T02:37:44.380Z,72.87
2018-03-02T02:40:11.836Z,99.22
2018-03-02T02:42:39.846Z,82.93
2018-03-02T02:45:08.085Z,78.32
2018-03-02T02:47:35.558Z,82.82
2018-03-02T02:50:03.028Z,74.97
2018-03-02T02:52:31.250Z,68.95
2018-03-02T02:54:58.719Z,82.45
2018-03-02T02:57:26.181Z,75.03
2018-03-02T02:59:53.654Z,71.32
2018-03-02T03:02:22.674Z,72.65
2018-03-02T03:04:50.541Z,79.50
2018-03-02T03:07:18.765Z,71.80
2018-03-02T03:09:46.228Z,72.82
2018-03-02T03:12:13.715Z,99.95
2018-03-02T03:14:41.170Z,80.18
2018-03-02T03:17:09.393Z,83.07
2018-03-02T03:19:36.859Z,74.43
2018-03-02T03:22:04.307Z,61.85
2018-03-02T03:24:31.773Z,72.22
2018-03-02T03:26:59.226Z,79.12
2018-03-02T03:29:26.692Z,90.53
2018-03-02T03:31:54.158Z,84.53
2018-03-02T03:34:21.617Z,78.30
2018-03-02T03:36:49.079Z,78.32
2018-03-02T03:39:16.568Z,87.88
2018-03-02T03:41:44.783Z,84.25
2018-03-02T03:44:13.015Z,74.47
2018-03-02T03:46:41.266Z,67.93
2018-03-02T03:49:08.737Z,72.87
2018-03-02T03:51:36.196Z,81.18
2018-03-02T03:54:04.441Z,65.80
2018-03-02T03:56:31.887Z,61.75
2018-03-02T03:58:59.384Z,61.25
2018-03-02T04:01:27.241Z,63.28
2018-03-02T04:03:55.081Z,67.35
2018-03-02T04:06:23.304Z,84.95
2018-03-02T04:08:51.537Z,87.78
2018-03-02T04:11:18.996Z,96.82
2018-03-02T04:13:46.454Z,82.35
2018-03-02T04:16:13.913Z,69.32
2018-03-02T04:18:41.370Z,86.15
2018-03-02T04:21:08.874Z,82.25
2018-03-02T04:23:36.341Z,78.32
2018-03-02T04:26:03.799Z,73.80
2018-03-02T04:28:32.036Z,90.53
2018-03-02T04:30:59.522Z,75.12
2018-03-02T04:33:27.128Z,75.68
2018-03-02T04:35:54.664Z,80.78
2018-03-02T04:38:22.192Z,87.93
2018-03-02T04:40:49.722Z,78.47
2018-03-02T04:43:17.978Z,71.12
2018-03-02T04:45:45.437Z,72.47
2018-03-02T04:48:12.889Z,87.43
2018-03-02T04:50:40.346Z,67.70
2018-03-02T04:53:07.813Z,76.72
2018-03-02T04:55:35.273Z,73.75
2018-03-02T04:58:02.739Z,65.00
2018-03-02T05:00:30.194Z,74.47
2018-03-02T05:02:58.422Z,76.50
2018-03-02T05:05:27.013Z,63.85
2018-03-02T05:07:55.254Z,78.68
2018-03-02T05:10:23.501Z,85.00
2018-03-02T05:12:50.966Z,89.85
2018-03-02T05:15:18.426Z,86.22
2018-03-02T05:17:45.891Z,75.43
2018-03-02T05:20:14.134Z,83.35
2018-03-02T05:22:41.602Z,101.72
2018-03-02T05:25:09.073Z,121.15
2018-03-02T05:27:36.542Z,103.78
2018-03-02T05:30:04.765Z,88.78
2018-03-02T05:32:32.230Z,86.82
2018-03-02T05:34:59.693Z,97.68
2018-03-02T05:37:27.153Z,83.82
2018-03-02T05:39:54.613Z,76.95
2018-03-02T05:42:22.065Z,81.80
2018-03-02T05:44:49.557Z,89.90
2018-03-02T05:47:17.799Z,79.40
2018-03-02T05:49:45.258Z,95.57
2018-03-02T05:52:12.705Z,78.25
2018-03-02T05:54:40.179Z,88.00
2018-03-02T05:57:07.633Z,83.25
2018-03-02T05:59:35.097Z,76.30
2018-03-02T06:02:02.549Z,49.08
2018-03-02T06:04:30.770Z,63.92
2018-03-02T06:06:58.634Z,83.00
2018-03-02T06:09:26.518Z,81.35
2018-03-02T06:11:54.750Z,88.53
2018-03-02T06:14:22.976Z,96.75
2018-03-02T06:16:50.442Z,98.93
2018-03-02T06:19:17.894Z,85.90
2018-03-02T06:21:45.371Z,112.90
2018-03-02T06:24:12.883Z,86.10
2018-03-02T06:26:40.387Z,95.72
2018-03-02T06:29:07.924Z,83.93
2018-03-02T06:31:35.466Z,93.18
2018-03-02T06:34:03.027Z,107.32
2018-03-02T06:36:30.571Z,88.32
2018-03-02T06:38:58.152Z,87.28
2018-03-02T06:41:25.728Z,98.43
2018-03-02T06:43:53.229Z,79.75
2018-03-02T06:46:20.792Z,76.60
2018-03-02T06:48:48.323Z,103.30
2018-03-02T06:51:15.777Z,100.05
2018-03-02T06:53:43.252Z,84.68
2018-03-02T06:56:10.700Z,94.18
2018-03-02T06:58:38.202Z,98.80
2018-03-02T07:01:05.611Z,80.28
2018-03-02T07:03:33.077Z,51.17
2018-03-02T07:06:01.302Z,84.80
2018-03-02T07:08:29.537Z,100.00
2018-03-02T07:10:57.776Z,96.05
2018-03-02T07:13:25.241Z,93.93
2018-03-02T07:15:52.702Z,86.22
2018-03-02T07:18:20.159Z,85.82
2018-03-02T07:20:47.615Z,92.22
2018-03-02T07:23:15.079Z,85.47
2018-03-02T07:25:42.554Z,89.65
2018-03-02T07:28:10.769Z,98.03
2018-03-02T07:30:38.229Z,91.70
2018-03-02T07:33:05.691Z,79.00
2018-03-02T07:35:33.158Z,86.95
2018-03-02T07:38:00.621Z,88.65
2018-03-02T07:40:28.087Z,86.68
2018-03-02T07:42:55.545Z,71.90
2018-03-02T07:45:23.014Z,83.15
2018-03-02T07:47:50.475Z,104.00
2018-03-02T07:50:18.718Z,84.57
2018-03-02T07:52:46.182Z,89.82
2018-03-02T07:55:13.629Z,95.65
2018-03-02T07:57:41.093Z,93.72
2018-03-02T08:00:08.549Z,100.68
2018-03-02T08:02:36.019Z,83.07
2018-03-02T08:05:03.489Z,86.30
2018-03-02T08:07:31.343Z,65.28
2018-03-02T08:09:59.560Z,85.60
2018-03-02T08:12:27.793Z,100.95
2018-03-02T08:14:55.257Z,95.20
2018-03-02T08:17:22.713Z,91.32
2018-03-02T08:19:50.176Z,103.10
2018-03-02T08:22:17.645Z,89.35
2018-03-02T08:24:45.873Z,89.62
2018-03-02T08:27:13.339Z,91.95
2018-03-02T08:29:40.788Z,102.72
2018-03-02T08:32:08.250Z,90.25
2018-03-02T08:34:35.704Z,95.30
2018-03-02T08:37:03.155Z,80.03
2018-03-02T08:39:30.615Z,89.15
2018-03-02T08:41:58.071Z,90.97
2018-03-02T08:44:25.542Z,89.03
2018-03-02T08:46:53.006Z,83.90
2018-03-02T08:49:20.468Z,88.15
2018-03-02T08:51:47.918Z,92.20
2018-03-02T08:54:15.370Z,79.53
2018-03-02T08:56:42.839Z,90.95
2018-03-02T08:59:10.310Z,98.22
2018-03-02T09:01:38.531Z,92.53
2018-03-02T09:04:05.993Z,93.05
2018-03-02T09:06:33.462Z,86.70
2018-03-02T09:09:00.917Z,89.57
2018-03-02T09:11:29.153Z,90.20
2018-03-02T09:13:57.386Z,70.62
2018-03-02T09:16:24.841Z,95.38
2018-03-02T09:18:52.299Z,94.37
2018-03-02T09:21:19.758Z,86.22
2018-03-02T09:23:47.242Z,87.35
2018-03-02T09:26:14.674Z,91.22
2018-03-02T09:28:42.137Z,92.60
2018-03-02T09:31:09.586Z,95.32
2018-03-02T09:33:37.042Z,84.35
2018-03-02T09:36:04.500Z,94.65
2018-03-02T09:38:31.957Z,98.93
2018-03-02T09:40:59.413Z,82.68
2018-03-02T09:43:26.872Z,92.78
2018-03-02T09:45:54.322Z,97.43
2018-03-02T09:48:21.777Z,99.72
2018-03-02T09:50:49.257Z,89.00
2018-03-02T09:53:17.481Z,94.68
2018-03-02T09:55:44.934Z,88.22
2018-03-02T09:58:12.386Z,100.70
2018-03-02T10:00:39.842Z,89.62
2018-03-02T10:03:07.298Z,97.05
2018-03-02T10:05:34.742Z,89.28
2018-03-02T10:08:02.205Z,93.05
2018-03-02T10:10:30.053Z,99.30
2018-03-02T10:12:57.514Z,101.00
2018-03-02T10:15:24.963Z,90.62
2018-03-02T10:17:53.188Z,110.75
2018-03-02T10:20:20.645Z,108.07
2018-03-02T10:22:48.106Z,95.40
2018-03-02T10:25:15.565Z,110.85
2018-03-02T10:27:43.014Z,90.82
2018-03-02T10:30:10.475Z,104.85
2018-03-02T10:32:37.933Z,85.85
2018-03-02T10:35:05.381Z,113.30
2018-03-02T10:37:32.838Z,103.72
2018-03-02T10:40:00.290Z,102.18
2018-03-02T10:42:27.744Z,98.55
2018-03-02T10:44:55.182Z,90.53
2018-03-02T10:47:22.705Z,108.15
2018-03-02T10:49:50.154Z,99.62
2018-03-02T10:52:17.603Z,97.60
2018-03-02T10:54:45.045Z,99.78
2018-03-02T10:57:12.502Z,113.70
2018-03-02T10:59:39.959Z,109.90
2018-03-02T11:02:07.406Z,96.53
2018-03-02T11:04:35.791Z,95.80
2018-03-02T11:07:03.241Z,88.55
2018-03-02T11:09:30.697Z,95.43
2018-03-02T11:11:58.155Z,89.90
2018-03-02T11:14:25.627Z,99.35
2018-03-02T11:16:53.073Z,108.95
2018-03-02T11:19:20.512Z,95.15
2018-03-02T11:21:47.985Z,99.43
2018-03-02T11:24:15.498Z,91.78
2018-03-02T11:26:42.956Z,98.25
2018-03-02T11:29:10.401Z,99.47
2018-03-02T11:31:37.854Z,77.78
2018-03-02T11:34:06.113Z,88.62
2018-03-02T11:36:33.564Z,91.82
2018-03-02T11:39:01.014Z,98.68
2018-03-02T11:41:28.472Z,118.10
2018-03-02T11:43:55.930Z,99.10
2018-03-02T11:46:23.384Z,89.03
2018-03-02T11:48:50.841Z,106.37
2018-03-02T11:51:18.293Z,115.18
2018-03-02T11:53:45.745Z,98.20
2018-03-02T11:56:13.193Z,95.68
2018-03-02T11:58:40.658Z,92.25
2018-03-02T12:01:08.135Z,100.00
2018-03-02T12:03:35.585Z,100.53
2018-03-02T12:06:03.826Z,100.65
2018-03-02T12:08:31.281Z,119.85
2018-03-02T12:10:58.741Z,123.25
2018-03-02T12:13:26.194Z,102.93
2018-03-02T12:15:53.653Z,95.00
2018-03-02T12:18:21.114Z,104.85
2018-03-02T12:20:48.579Z,97.18
2018-03-02T12:23:16.037Z,144.18
2018-03-02T12:25:43.490Z,95.55
2018-03-02T12:28:10.945Z,89.95
2018-03-02T12:30:38.405Z,103.50
2018-03-02T12:33:05.864Z,105.07
2018-03-02T12:35:33.326Z,98.12
2018-03-02T12:38:01.543Z,98.40
2018-03-02T12:40:29.766Z,97.68
2018-03-02T12:42:57.221Z,96.55
2018-03-02T12:45:24.677Z,105.97
2018-03-02T12:47:52.132Z,97.20
2018-03-02T12:50:20.350Z,94.75
2018-03-02T12:52:48.579Z,102.75
2018-03-02T12:55:16.038Z,94.65
2018-03-02T12:57:43.494Z,94.55
2018-03-02T13:00:10.954Z,103.00
2018-03-02T13:02:38.426Z,90.45
2018-03-02T13:05:06.286Z,102.12
2018-03-02T13:07:33.779Z,96.63
2018-03-02T13:10:01.598Z,90.15
2018-03-02T13:12:29.071Z,86.57
2018-03-02T13:14:56.530Z,83.95
2018-03-02T13:17:23.988Z,93.30
2018-03-02T13:19:51.443Z,92.37
2018-03-02T13:22:30.843Z,94.18
2018-03-02T13:24:58.285Z,86.65
2018-03-02T13:27:37.502Z,91.18
2018-03-02T13:30:05.717Z,90.60
2018-03-02T13:32:33.174Z,107.47
2018-03-02T13:35:08.262Z,94.07
2018-03-02T13:37:36.487Z,88.32
2018-03-02T13:40:15.821Z,127.68
2018-03-02T13:42:43.279Z,108.12
2018-03-02T13:45:10.730Z,95.10
2018-03-02T13:50:57.585Z,64.75
2018-03-02T13:53:25.096Z,107.05
2018-03-02T13:55:53.341Z,81.60
2018-03-02T13:58:20.782Z,93.78
2018-03-02T14:00:48.237Z,92.90
2018-03-02T14:03:27.541Z,93.37
2018-03-02T14:05:55.014Z,99.53
2018-03-02T14:08:22.458Z,88.28
2018-03-02T14:10:49.906Z,93.57
2018-03-02T14:13:17.365Z,88.20
2018-03-02T14:15:44.834Z,103.05
2018-03-02T14:18:13.053Z,108.40
2018-03-02T14:20:40.526Z,91.57
2018-03-02T14:23:08.745Z,96.25
2018-03-02T14:25:36.207Z,88.15
2018-03-02T14:28:03.666Z,90.53
2018-03-02T14:30:31.145Z,87.45
2018-03-02T14:32:58.601Z,83.65
2018-03-02T14:35:26.056Z,91.22
2018-03-02T14:37:53.520Z,83.87
2018-03-02T14:40:20.982Z,91.80
2018-03-02T14:42:48.437Z,98.40
2018-03-02T14:45:15.902Z,80.62
2018-03-02T14:47:44.124Z,95.85
2018-03-02T14:50:11.588Z,88.70
2018-03-02T14:52:39.033Z,95.28
2018-03-02T14:55:06.546Z,88.45
2018-03-02T14:57:33.998Z,96.37
2018-03-02T15:00:01.471Z,90.95
2018-03-02T15:02:29.697Z,99.43
2018-03-02T15:04:57.915Z,111.40
2018-03-02T15:07:26.134Z,119.87
2018-03-02T15:09:53.592Z,117.93
2018-03-02T15:12:21.049Z,96.90
2018-03-02T15:14:48.501Z,106.07
2018-03-02T15:17:15.967Z,86.28
2018-03-02T15:19:43.417Z,108.37
2018-03-02T15:22:10.880Z,100.12
2018-03-02T15:24:38.328Z,110.03
2018-03-02T15:27:06.187Z,101.12
2018-03-02T15:29:33.695Z,105.12
2018-03-02T15:32:02.285Z,94.18
2018-03-02T15:34:29.743Z,109.20
2018-03-02T15:36:57.193Z,97.68
2018-03-02T15:39:24.655Z,95.70
2018-03-02T15:41:52.140Z,99.00
2018-03-02T15:44:19.675Z,103.45
2018-03-02T15:46:47.902Z,106.00
2018-03-02T15:49:15.358Z,105.05
2018-03-02T15:51:42.810Z,110.80
2018-03-02T15:54:10.285Z,111.68
2018-03-02T15:56:37.831Z,102.20
2018-03-02T15:59:05.282Z,104.40
2018-03-02T16:01:32.733Z,91.20
2018-03-02T16:04:00.429Z,92.55
2018-03-02T16:06:27.915Z,99.70
2018-03-02T16:08:56.163Z,101.20
2018-03-02T16:11:23.787Z,101.60
2018-03-02T16:13:51.251Z,107.93
2018-03-02T16:16:18.702Z,98.53
2018-03-02T16:18:46.155Z,104.45
2018-03-02T16:21:13.629Z,103.12
2018-03-02T16:23:41.807Z,107.65
2018-03-02T16:26:09.284Z,131.40
2018-03-02T16:28:36.754Z,118.10
2018-03-02T16:31:04.238Z,107.30
2018-03-02T16:33:31.695Z,117.60
2018-03-02T16:35:59.171Z,129.98
2018-03-02T16:38:26.627Z,102.90
2018-03-02T16:40:54.098Z,111.82
2018-03-02T16:43:21.579Z,182.73
2018-03-02T16:45:49.068Z,107.80
2018-03-02T16:48:16.496Z,101.40
2018-03-02T16:50:43.958Z,115.43
2018-03-02T16:53:11.414Z,109.22
2018-03-02T16:55:38.867Z,131.37
2018-03-02T16:58:06.317Z,104.57
2018-03-02T17:00:33.778Z,104.65
2018-03-02T17:03:01.245Z,109.18
2018-03-02T17:05:28.699Z,122.37
2018-03-02T17:07:56.154Z,120.32
2018-03-02T17:10:23.610Z,105.12
2018-03-02T17:12:51.061Z,123.97
2018-03-02T17:15:18.526Z,108.35
2018-03-02T17:17:45.984Z,102.60
2018-03-02T17:20:13.442Z,107.97
2018-03-02T17:22:40.902Z,109.60
2018-03-02T17:25:08.364Z,107.80
2018-03-02T17:27:35.808Z,126.30
2018-03-02T17:30:03.263Z,116.90
2018-03-02T17:32:30.753Z,121.43
2018-03-02T17:34:58.979Z,109.60
2018-03-02T17:37:26.436Z,117.43
2018-03-02T17:39:53.900Z,115.85
2018-03-02T17:42:21.360Z,115.40
2018-03-02T17:44:48.818Z,114.85
2018-03-02T17:47:16.293Z,118.78
2018-03-02T17:49:43.752Z,113.37
2018-03-02T17:52:11.229Z,114.57
2018-03-02T17:54:39.437Z,110.37
2018-03-02T17:57:06.907Z,117.68
2018-03-02T17:59:34.359Z,111.07
2018-03-02T18:02:02.586Z,114.10
2018-03-02T18:04:30.805Z,127.38
2018-03-02T18:06:58.278Z,114.28
2018-03-02T18:09:25.745Z,124.53
2018-03-02T18:11:53.200Z,119.65
2018-03-02T18:14:20.662Z,122.13
2018-03-02T18:16:48.106Z,119.60
2018-03-02T18:19:15.572Z,103.40
2018-03-02T18:21:43.042Z,109.28
2018-03-02T18:24:10.497Z,112.32
2018-03-02T18:26:37.974Z,102.75
2018-03-02T18:29:06.654Z,125.15
2018-03-02T18:31:34.205Z,115.18
2018-03-02T18:34:02.499Z,116.30
2018-03-02T18:36:30.736Z,121.13
2018-03-02T18:38:58.178Z,120.93
2018-03-02T18:41:25.650Z,126.68
2018-03-02T18:43:53.100Z,118.45
2018-03-02T18:46:20.556Z,133.60
2018-03-02T18:48:48.041Z,112.78
2018-03-02T18:51:15.495Z,125.38
2018-03-02T18:53:42.949Z,132.50
2018-03-02T18:56:10.406Z,118.68
2018-03-02T18:58:37.865Z,126.20
2018-03-02T19:01:05.313Z,138.98
2018-03-02T19:03:32.798Z,121.93
2018-03-02T19:06:01.017Z,120.05
2018-03-02T19:08:28.481Z,131.12
2018-03-02T19:10:55.936Z,113.53
2018-03-02T19:13:23.389Z,119.65
2018-03-02T19:15:50.843Z,135.57
2018-03-02T19:18:18.298Z,130.90
2018-03-02T19:20:45.757Z,119.82
2018-03-02T19:23:13.990Z,120.62
2018-03-02T19:25:41.444Z,133.43
2018-03-02T19:28:09.675Z,127.95
2018-03-02T19:30:37.128Z,138.02
2018-03-02T19:33:04.574Z,140.98
2018-03-02T19:35:32.034Z,127.43
2018-03-02T19:37:59.501Z,124.87
2018-03-02T19:40:26.964Z,120.75
2018-03-02T19:42:54.419Z,131.93
2018-03-02T19:45:21.866Z,137.50
2018-03-02T19:47:49.327Z,135.55
2018-03-02T19:50:16.810Z,112.60
2018-03-02T19:52:44.302Z,139.93
2018-03-02T19:55:11.726Z,137.80
2018-03-02T19:57:39.172Z,128.95
2018-03-02T20:00:06.621Z,134.37
2018-03-02T20:02:34.082Z,141.23
2018-03-02T20:05:01.548Z,125.95
2018-03-02T20:07:28.989Z,131.25
2018-03-02T20:09:56.454Z,128.27
2018-03-02T20:12:23.907Z,128.25
2018-03-02T20:14:51.354Z,129.60
2018-03-02T20:17:18.813Z,133.35
2018-03-02T20:19:46.267Z,132.98
2018-03-02T20:22:13.732Z,131.98
2018-03-02T20:24:42.113Z,134.90
2018-03-02T20:27:10.705Z,139.82
2018-03-02T20:29:38.160Z,130.05
2018-03-02T20:32:05.604Z,139.43
2018-03-02T20:34:33.058Z,138.95
2018-03-02T20:37:00.514Z,132.25
2018-03-02T20:39:27.965Z,130.93
2018-03-02T20:41:55.419Z,143.45
2018-03-02T20:44:22.873Z,137.20
2018-03-02T20:46:51.105Z,140.50
2018-03-02T20:49:18.565Z,130.57
2018-03-02T20:51:46.019Z,138.20
2018-03-02T20:54:13.476Z,135.85
2018-03-02T20:56:40.929Z,133.12
2018-03-02T20:59:08.385Z,145.43
2018-03-02T21:01:35.841Z,139.55
2018-03-02T21:04:03.299Z,138.07
2018-03-02T21:06:31.513Z,139.88
2018-03-02T21:08:58.969Z,135.32
2018-03-02T21:11:26.426Z,148.25
2018-03-02T21:13:53.886Z,138.35
2018-03-02T21:16:22.106Z,169.05
2018-03-02T21:18:50.327Z,145.40
2018-03-02T21:21:17.791Z,136.12
2018-03-02T21:23:45.250Z,144.32
2018-03-02T21:26:12.705Z,129.60
2018-03-02T21:28:40.552Z,134.43
2018-03-02T21:31:08.027Z,150.73
2018-03-02T21:33:35.487Z,159.48
2018-03-02T21:36:02.972Z,152.27
2018-03-02T21:38:30.425Z,147.68
2018-03-02T21:40:57.940Z,156.55
2018-03-02T21:43:26.118Z,154.35
2018-03-02T21:45:53.594Z,149.57
2018-03-02T21:48:21.040Z,152.32
2018-03-02T21:50:48.513Z,131.90
2018-03-02T21:53:15.978Z,132.63
2018-03-02T21:55:43.449Z,151.10
2018-03-02T21:58:10.981Z,152.00
2018-03-02T22:00:39.162Z,156.27
2018-03-02T22:03:06.619Z,157.65
2018-03-02T22:05:34.094Z,140.55
2018-03-02T22:08:01.557Z,156.77
2018-03-02T22:10:29.026Z,155.27
2018-03-02T22:12:57.256Z,150.40
2018-03-02T22:15:24.712Z,155.70
2018-03-02T22:17:52.172Z,145.30
2018-03-02T22:20:19.623Z,141.45
2018-03-02T22:22:47.081Z,152.60
2018-03-02T22:25:14.538Z,155.07
2018-03-02T22:27:42.762Z,135.18
2018-03-02T22:30:10.984Z,147.73
2018-03-02T22:32:39.218Z,142.15
2018-03-02T22:35:06.694Z,138.82
2018-03-02T22:37:34.159Z,149.95
2018-03-02T22:40:01.605Z,155.82
2018-03-02T22:42:29.103Z,161.52
2018-03-02T22:44:56.540Z,144.65
2018-03-02T22:47:24.003Z,145.18
2018-03-02T22:49:51.463Z,148.38
2018-03-02T22:52:18.926Z,148.43
2018-03-02T22:54:46.378Z,162.73
2018-03-02T22:57:13.838Z,137.60
2018-03-02T22:59:41.289Z,153.62
2018-03-02T23:02:08.738Z,149.75
2018-03-02T23:04:36.194Z,150.65
2018-03-02T23:07:03.651Z,158.27
2018-03-02T23:09:31.106Z,156.63
2018-03-02T23:11:58.566Z,151.60
2018-03-02T23:14:26.022Z,160.65
2018-03-02T23:16:53.493Z,153.50
2018-03-02T23:19:20.966Z,146.75
2018-03-02T23:21:48.452Z,154.73
2018-03-02T23:24:15.926Z,146.15
2018-03-02T23:26:43.480Z,151.27
2018-03-02T23:29:11.119Z,169.27
2018-03-02T23:31:39.212Z,152.93
2018-03-02T23:34:06.700Z,148.85
2018-03-02T23:36:34.162Z,145.98
2018-03-02T23:39:01.625Z,154.70
2018-03-02T23:41:29.083Z,158.48
2018-03-02T23:43:56.540Z,147.75
2018-03-02T23:46:24.762Z,156.27
2018-03-02T23:48:52.221Z,153.15
2018-03-02T23:51:19.701Z,158.65
2018-03-02T23:53:47.173Z,159.70
2018-03-02T23:56:14.649Z,160.05
2018-03-02T23:58:42.101Z,152.40
